Pensacola Regional Airport Pensacola US
ICAO: KPNS
IATA: PNS
Category: Medium
Scheduled Services: Yes

Elevation: 121 ft
TransAlt. 18000 ft.

Airport Communications:
APP/DEP:118.6
ATIS:121.25
CLNC DEL:123.725
CTAF:119.9
GND:121.9
GAINESVILLE RDO:122.2
TWR:119.9
UNICOM:122.95

KPNS Zoom In..

If you have problems with the map follow the link
https://www.worldairports.se/pages/airport.php?
ICAO=KPNS

Runways:

(A) RW 08 length 7000 ft width 150 ft
LOC 110.95 / hdg 80

(B) RW 17 length 7004 ft width 150 ft
ILS 111.10 / hdg 169

(C) RW 26 length 7000 ft width 150 ft
LOC 110.95 / hdg 260

(D) RW 35 length 7004 ft width 150 ft
LOC 110.95 / hdg 349

Location; KPNS
Day. 22 / Time. 15.53 Zulu
* Altimeter: 30.15
* Temperature: 22° c. 71.6°f.
* Wind from: 130° Speed 04 kn.
Dewpoint: 20° c.
Visibility: 6 Statute Miles.
Clouds: Broken 400 ft.
Clouds: Overcast 700 ft.
Conditions: Mist.

KPNS 221553Z 13004KT 6SM BR BKN004 OVC007 22/20 A3015 RMK AO2 SLP211 T02170200


Wind From 130°
Speed 04 kn.

 
 
jpsmedia.com for Web Design worldairports.se 2019   terms of use